createdAt,value
2018-09-04T00:01:58.353Z,15.90
2018-09-04T00:04:26.703Z,15.90
2018-09-04T00:06:54.929Z,15.90
2018-09-04T00:09:23.304Z,15.90
2018-09-04T00:11:51.743Z,15.80
2018-09-04T00:14:20.116Z,15.80
2018-09-04T00:16:48.601Z,15.80
2018-09-04T00:19:17.087Z,15.80
2018-09-04T00:21:45.490Z,15.70
2018-09-04T00:24:13.846Z,15.70
2018-09-04T00:26:42.416Z,15.80
2018-09-04T00:29:10.849Z,15.80
2018-09-04T00:31:39.386Z,15.80
2018-09-04T00:34:07.760Z,15.70
2018-09-04T00:36:35.986Z,15.70
2018-09-04T00:39:04.943Z,15.60
2018-09-04T00:41:33.980Z,15.70
2018-09-04T00:44:02.486Z,15.70
2018-09-04T00:46:30.897Z,15.70
2018-09-04T00:48:59.446Z,15.70
2018-09-04T00:51:28.286Z,15.60
2018-09-04T00:53:57.570Z,15.50
2018-09-04T00:56:26.143Z,15.40
2018-09-04T00:58:54.633Z,15.40
2018-09-04T01:01:23.251Z,15.30
2018-09-04T01:03:51.667Z,15.30
2018-09-04T01:06:19.882Z,15.30
2018-09-04T01:08:48.358Z,15.30
2018-09-04T01:11:16.966Z,15.10
2018-09-04T01:13:46.782Z,15.10
2018-09-04T01:16:16.068Z,15.30
2018-09-04T01:18:44.515Z,15.40
2018-09-04T01:21:13.454Z,15.40
2018-09-04T01:23:41.935Z,15.40
2018-09-04T01:26:10.579Z,15.50
2018-09-04T01:28:39.245Z,15.50
2018-09-04T01:31:07.946Z,15.30
2018-09-04T01:33:36.309Z,15.40
2018-09-04T01:36:04.658Z,15.40
2018-09-04T01:38:33.248Z,15.40
2018-09-04T01:41:01.728Z,15.40
2018-09-04T01:43:30.326Z,15.40
2018-09-04T01:45:58.722Z,15.20
2018-09-04T01:48:27.303Z,15.00
2018-09-04T01:50:55.938Z,14.90
2018-09-04T01:53:24.818Z,14.80
2018-09-04T01:55:53.352Z,14.90
2018-09-04T01:58:21.915Z,15.00
2018-09-04T02:00:50.125Z,15.10
2018-09-04T02:03:18.810Z,15.10
2018-09-04T02:05:47.478Z,15.20
2018-09-04T02:08:15.940Z,15.30
2018-09-04T02:10:44.416Z,15.20
2018-09-04T02:13:12.799Z,15.10
2018-09-04T02:15:41.214Z,15.10
2018-09-04T02:18:10.313Z,15.00
2018-09-04T02:20:39.073Z,14.90
2018-09-04T02:23:07.676Z,15.00
2018-09-04T02:25:36.283Z,15.00
2018-09-04T02:28:04.794Z,15.00
2018-09-04T02:30:33.237Z,15.20
2018-09-04T02:33:01.867Z,15.30
2018-09-04T02:35:30.292Z,15.30
2018-09-04T02:37:58.542Z,15.30
2018-09-04T02:40:26.838Z,15.30
2018-09-04T02:42:55.128Z,15.30
2018-09-04T02:45:23.643Z,15.00
2018-09-04T02:47:52.089Z,15.00
2018-09-04T02:50:20.752Z,15.00
2018-09-04T02:52:49.176Z,15.00
2018-09-04T02:55:17.905Z,15.20
2018-09-04T02:57:46.341Z,15.20
2018-09-04T03:00:14.615Z,15.10
2018-09-04T03:02:42.843Z,15.10
2018-09-04T03:05:11.285Z,15.10
2018-09-04T03:07:39.764Z,15.10
2018-09-04T03:10:08.593Z,15.10
2018-09-04T03:12:36.924Z,15.10
2018-09-04T03:15:05.419Z,15.00
2018-09-04T03:17:33.984Z,15.00
2018-09-04T03:20:02.480Z,15.20
2018-09-04T03:22:30.747Z,15.30
2018-09-04T03:24:59.098Z,15.30
2018-09-04T03:27:27.363Z,15.20
2018-09-04T03:29:55.770Z,15.00
2018-09-04T03:32:24.206Z,15.10
2018-09-04T03:34:52.647Z,15.10
2018-09-04T03:37:20.878Z,15.10
2018-09-04T03:39:49.115Z,15.10
2018-09-04T03:42:17.545Z,14.90
2018-09-04T03:44:46.055Z,15.00
2018-09-04T03:47:14.935Z,15.10
2018-09-04T03:49:43.540Z,15.30
2018-09-04T03:52:12.796Z,15.30
2018-09-04T03:54:41.317Z,15.30
2018-09-04T03:57:09.582Z,15.00
2018-09-04T03:59:37.817Z,14.70
2018-09-04T04:02:06.646Z,14.70
2018-09-04T04:04:35.386Z,14.70
2018-09-04T04:07:03.854Z,14.60
2018-09-04T04:09:32.340Z,14.50
2018-09-04T04:12:00.733Z,14.50
2018-09-04T04:14:29.105Z,14.40
2018-09-04T04:16:57.650Z,14.40
2018-09-04T04:19:25.941Z,14.50
2018-09-04T04:21:54.178Z,14.60
2018-09-04T04:24:22.867Z,14.40
2018-09-04T04:26:51.320Z,14.50
2018-09-04T04:29:19.832Z,14.40
2018-09-04T04:31:48.393Z,14.50
2018-09-04T04:34:16.944Z,14.40
2018-09-04T04:36:45.468Z,14.50
2018-09-04T04:39:13.735Z,14.60
2018-09-04T04:41:42.152Z,14.50
2018-09-04T04:44:10.427Z,14.40
2018-09-04T04:46:39.413Z,14.40
2018-09-04T04:49:08.469Z,14.40
2018-09-04T04:51:36.724Z,14.30
2018-09-04T04:54:05.141Z,14.40
2018-09-04T04:56:33.632Z,14.40
2018-09-04T04:59:02.165Z,14.50
2018-09-04T05:01:30.698Z,14.50
2018-09-04T05:03:59.730Z,14.60
2018-09-04T05:06:28.262Z,14.50
2018-09-04T05:08:56.628Z,14.50
2018-09-04T05:11:25.305Z,14.50
2018-09-04T05:13:54.254Z,14.50
2018-09-04T05:16:22.611Z,14.60
2018-09-04T05:18:50.934Z,14.70
2018-09-04T05:21:19.750Z,14.70
2018-09-04T05:23:48.029Z,14.80
2018-09-04T05:26:16.320Z,14.90
2018-09-04T05:28:44.872Z,14.90
2018-09-04T05:31:13.296Z,14.90
2018-09-04T05:33:43.463Z,14.80
2018-09-04T05:36:12.286Z,14.70
2018-09-04T05:38:40.535Z,14.60
2018-09-04T05:41:09.072Z,14.90
2018-09-04T05:43:42.725Z,15.00
2018-09-04T05:46:15.604Z,15.00
2018-09-04T05:48:44.328Z,15.00
2018-09-04T05:51:12.809Z,15.00
2018-09-04T05:53:41.167Z,15.00
2018-09-04T05:56:09.940Z,15.00
2018-09-04T05:58:38.501Z,15.00
2018-09-04T06:01:07.099Z,15.00
2018-09-04T06:03:35.668Z,14.90
2018-09-04T06:06:04.058Z,14.90
2018-09-04T06:08:32.303Z,15.00
2018-09-04T06:11:01.175Z,14.90
2018-09-04T06:13:29.611Z,14.80
2018-09-04T06:15:57.881Z,14.90
2018-09-04T06:18:26.539Z,15.00
2018-09-04T06:20:54.940Z,14.90
2018-09-04T06:23:23.438Z,15.00
2018-09-04T06:25:52.060Z,15.10
2018-09-04T06:28:22.499Z,15.00
2018-09-04T06:30:52.552Z,14.90
2018-09-04T06:33:21.330Z,14.90
2018-09-04T06:35:49.590Z,15.00
2018-09-04T06:38:18.693Z,15.00
2018-09-04T06:40:47.370Z,15.20
2018-09-04T06:43:16.830Z,15.10
2018-09-04T06:45:46.137Z,15.00
2018-09-04T06:48:15.374Z,15.00
2018-09-04T06:50:43.962Z,15.10
2018-09-04T06:53:14.671Z,15.10
2018-09-04T06:55:44.324Z,14.90
2018-09-04T06:58:13.240Z,15.20
2018-09-04T07:00:41.847Z,15.40
2018-09-04T07:03:11.599Z,15.50
2018-09-04T07:05:40.454Z,15.50
2018-09-04T07:08:09.027Z,15.20
2018-09-04T07:10:37.711Z,15.30
2018-09-04T07:13:06.268Z,15.30
2018-09-04T07:15:35.236Z,15.60
2018-09-04T07:18:04.034Z,15.80
2018-09-04T07:20:32.513Z,15.70
2018-09-04T07:23:01.016Z,15.70
2018-09-04T07:25:31.353Z,15.80
2018-09-04T07:28:01.031Z,15.90
2018-09-04T07:30:30.176Z,15.80
2018-09-04T07:32:58.731Z,15.70
2018-09-04T07:35:27.221Z,15.90
2018-09-04T07:37:56.033Z,16.10
2018-09-04T07:40:24.916Z,15.90
2018-09-04T07:42:53.545Z,16.00
2018-09-04T07:45:22.004Z,16.30
2018-09-04T07:47:50.879Z,16.10
2018-09-04T07:50:20.160Z,16.30
2018-09-04T07:52:49.161Z,16.40
2018-09-04T07:55:17.688Z,16.40
2018-09-04T07:57:46.679Z,16.40
2018-09-04T08:00:15.144Z,16.40
2018-09-04T08:02:44.222Z,16.60
2018-09-04T08:05:12.539Z,16.70
2018-09-04T08:07:41.948Z,16.60
2018-09-04T08:10:10.474Z,16.70
2018-09-04T08:12:39.289Z,16.90
2018-09-04T08:15:07.642Z,17.00
2018-09-04T08:17:36.822Z,16.60
2018-09-04T08:20:05.578Z,16.50
2018-09-04T08:22:34.553Z,16.30
2018-09-04T08:25:03.287Z,16.50
2018-09-04T08:27:31.746Z,16.40
2018-09-04T08:30:00.209Z,16.60
2018-09-04T08:32:28.957Z,16.70
2018-09-04T08:34:57.208Z,16.60
2018-09-04T08:37:25.641Z,16.90
2018-09-04T08:39:54.333Z,16.90
2018-09-04T08:42:22.872Z,17.00
2018-09-04T08:44:51.439Z,16.90
2018-09-04T08:47:20.648Z,16.80
2018-09-04T08:49:49.069Z,17.20
2018-09-04T08:52:17.456Z,17.40
2018-09-04T08:54:46.079Z,17.30
2018-09-04T08:57:14.627Z,17.10
2018-09-04T08:59:43.154Z,17.10
2018-09-04T09:02:16.041Z,16.70
2018-09-04T09:04:44.957Z,17.00
2018-09-04T09:07:13.252Z,17.00
2018-09-04T09:09:41.794Z,17.10
2018-09-04T09:12:10.257Z,17.00
2018-09-04T09:14:38.828Z,16.90
2018-09-04T09:17:07.376Z,16.80
2018-09-04T09:19:36.002Z,16.80
2018-09-04T09:22:04.673Z,16.80
2018-09-04T09:24:33.694Z,16.80
2018-09-04T09:27:02.520Z,16.80
2018-09-04T09:29:30.874Z,16.60
2018-09-04T09:31:59.621Z,16.80
2018-09-04T09:34:27.894Z,16.90
2018-09-04T09:36:56.404Z,17.00
2018-09-04T09:39:24.948Z,17.10
2018-09-04T09:41:53.357Z,17.40
2018-09-04T09:44:21.642Z,17.10
2018-09-04T09:46:50.357Z,16.90
2018-09-04T09:49:18.794Z,16.80
2018-09-04T09:51:47.204Z,16.50
2018-09-04T09:54:15.899Z,16.70
2018-09-04T09:56:44.216Z,16.40
2018-09-04T09:59:12.471Z,16.70
2018-09-04T10:01:46.180Z,16.70
2018-09-04T10:04:14.720Z,16.60
2018-09-04T10:06:43.261Z,16.50
2018-09-04T10:09:11.989Z,16.40
2018-09-04T10:11:40.360Z,16.40
2018-09-04T10:14:08.683Z,16.50
2018-09-04T10:16:37.858Z,16.50
2018-09-04T10:19:06.159Z,16.60
2018-09-04T10:21:38.200Z,16.80
2018-09-04T10:24:07.403Z,16.90
2018-09-04T10:26:36.148Z,16.90
2018-09-04T10:29:04.521Z,16.80
2018-09-04T10:31:33.036Z,16.60
2018-09-04T10:34:01.847Z,16.60
2018-09-04T10:36:30.362Z,16.60
2018-09-04T10:41:08.095Z,16.30
2018-09-04T10:43:36.605Z,16.10
2018-09-04T10:46:10.092Z,16.00
2018-09-04T10:48:38.340Z,16.20
2018-09-04T10:51:06.767Z,16.00
2018-09-04T10:53:35.319Z,16.30
2018-09-04T10:56:04.066Z,16.20
2018-09-04T10:58:32.726Z,16.10
2018-09-04T11:01:01.173Z,16.30
2018-09-04T11:03:29.690Z,16.40
2018-09-04T11:05:58.235Z,16.50
2018-09-04T11:08:26.480Z,16.70
2018-09-04T11:10:54.889Z,16.90
2018-09-04T11:13:23.683Z,16.90
2018-09-04T11:15:52.236Z,16.90
2018-09-04T11:18:20.684Z,17.10
2018-09-04T11:20:49.375Z,17.30
2018-09-04T11:23:18.152Z,17.30
2018-09-04T11:25:46.790Z,17.00
2018-09-04T11:28:15.911Z,17.10
2018-09-04T11:30:44.323Z,17.20
2018-09-04T11:33:12.703Z,17.30
2018-09-04T11:35:41.520Z,17.40
2018-09-04T11:38:10.197Z,17.30
2018-09-04T11:40:39.874Z,17.50
2018-09-04T11:43:08.648Z,17.30
2018-09-04T11:45:36.891Z,17.20
2018-09-04T11:48:05.402Z,17.30
2018-09-04T11:50:34.302Z,17.30
2018-09-04T11:53:02.698Z,17.40
2018-09-04T11:55:31.416Z,17.50
2018-09-04T11:58:00.406Z,17.70
2018-09-04T12:00:36.718Z,17.70
2018-09-04T12:03:05.318Z,17.90
2018-09-04T12:05:34.059Z,18.10
2018-09-04T12:08:02.407Z,18.50
2018-09-04T12:10:30.683Z,18.20
2018-09-04T12:12:59.264Z,18.60
2018-09-04T12:15:27.494Z,18.90
2018-09-04T12:17:55.782Z,19.10
2018-09-04T12:20:29.769Z,18.70
2018-09-04T12:22:58.197Z,18.10
2018-09-04T12:25:27.037Z,18.10
2018-09-04T12:27:55.741Z,18.10
2018-09-04T12:30:24.227Z,17.80
2018-09-04T12:32:53.009Z,17.80
2018-09-04T12:35:21.836Z,18.20
2018-09-04T12:37:50.277Z,18.40
2018-09-04T12:40:18.776Z,18.50
2018-09-04T12:42:47.504Z,18.80
2018-09-04T12:45:15.762Z,18.50
2018-09-04T12:47:44.257Z,18.70
2018-09-04T12:50:12.790Z,18.90
2018-09-04T12:52:41.375Z,18.90
2018-09-04T12:55:09.882Z,19.10
2018-09-04T12:57:38.581Z,18.90
2018-09-04T13:00:07.108Z,18.90
2018-09-04T13:02:35.556Z,18.90
2018-09-04T13:05:04.335Z,19.40
2018-09-04T13:07:32.594Z,19.20
2018-09-04T13:10:00.862Z,19.10
2018-09-04T13:12:29.597Z,18.70
2018-09-04T13:14:58.177Z,18.40
2018-09-04T13:17:26.668Z,18.50
2018-09-04T13:19:55.297Z,18.30
2018-09-04T13:22:23.586Z,18.30
2018-09-04T13:24:51.849Z,18.50
2018-09-04T13:27:20.830Z,18.80
2018-09-04T13:29:49.370Z,18.90
2018-09-04T13:32:18.015Z,19.00
2018-09-04T13:34:47.057Z,19.00
2018-09-04T13:37:15.617Z,19.30
2018-09-04T13:39:44.417Z,19.50
2018-09-04T13:42:13.225Z,19.80
2018-09-04T13:44:41.652Z,20.00
2018-09-04T13:47:10.736Z,19.90
2018-09-04T13:49:39.595Z,19.60
2018-09-04T13:52:07.938Z,19.40
2018-09-04T13:54:37.274Z,19.50
2018-09-04T13:57:05.869Z,19.30
2018-09-04T13:59:34.389Z,19.30
2018-09-04T14:02:02.894Z,19.20
2018-09-04T14:04:31.687Z,19.80
2018-09-04T14:06:59.995Z,19.80
2018-09-04T14:09:28.440Z,19.90
2018-09-04T14:11:57.108Z,19.90
2018-09-04T14:14:25.569Z,19.60
2018-09-04T14:16:54.154Z,19.90
2018-09-04T14:19:25.139Z,19.60
2018-09-04T14:21:56.209Z,19.30
2018-09-04T14:24:25.433Z,19.50
2018-09-04T14:26:53.948Z,19.80
2018-09-04T14:29:53.153Z,20.00
2018-09-04T14:31:51.283Z,20.00
2018-09-04T14:34:20.123Z,20.20
2018-09-04T14:36:49.378Z,20.20
2018-09-04T14:39:17.844Z,20.10
2018-09-04T14:41:46.880Z,19.90
2018-09-04T14:44:15.326Z,19.80
2018-09-04T14:46:44.732Z,20.00
2018-09-04T14:49:13.515Z,20.00
2018-09-04T14:51:42.136Z,20.10
2018-09-04T14:54:10.811Z,19.90
2018-09-04T14:56:40.315Z,20.00
2018-09-04T14:59:08.717Z,19.70
2018-09-04T15:01:37.112Z,19.50
2018-09-04T15:04:06.753Z,19.40
2018-09-04T15:06:35.013Z,19.50
2018-09-04T15:09:04.416Z,19.90
2018-09-04T15:11:32.948Z,20.00
2018-09-04T15:14:01.184Z,20.30
2018-09-04T15:16:29.645Z,20.40
2018-09-04T15:18:58.384Z,20.40
2018-09-04T15:21:26.670Z,20.20
2018-09-04T15:23:55.054Z,20.40
2018-09-04T15:26:23.615Z,20.10
2018-09-04T15:28:51.911Z,20.20
2018-09-04T15:31:20.228Z,20.40
2018-09-04T15:33:49.583Z,20.50
2018-09-04T15:36:18.044Z,20.80
2018-09-04T15:38:46.583Z,20.90
2018-09-04T15:41:14.935Z,21.10
2018-09-04T15:43:44.247Z,20.30
2018-09-04T15:46:13.008Z,20.60
2018-09-04T15:48:41.621Z,20.40
2018-09-04T15:51:10.081Z,20.50
2018-09-04T15:53:38.971Z,20.60
2018-09-04T15:56:07.431Z,20.60
2018-09-04T15:58:35.869Z,20.50
2018-09-04T16:01:04.608Z,20.20
2018-09-04T16:03:33.206Z,20.40
2018-09-04T16:06:01.468Z,20.30
2018-09-04T16:08:30.023Z,19.90
2018-09-04T16:10:58.335Z,19.70
2018-09-04T16:14:51.268Z,19.40
2018-09-04T16:17:19.865Z,19.60
2018-09-04T16:19:48.138Z,19.40
2018-09-04T16:22:16.662Z,19.00
2018-09-04T16:24:45.153Z,18.70
2018-09-04T16:27:16.441Z,18.60
2018-09-04T16:29:45.219Z,18.70
2018-09-04T16:32:13.490Z,18.70
2018-09-04T16:34:42.042Z,18.60
2018-09-04T16:37:10.707Z,18.40
2018-09-04T16:42:33.078Z,18.30
2018-09-04T16:45:04.691Z,18.30
2018-09-04T16:47:34.194Z,18.40
2018-09-04T16:50:03.955Z,18.40
2018-09-04T16:53:01.229Z,18.40
2018-09-04T16:55:34.433Z,18.10
2018-09-04T16:58:02.853Z,18.20
2018-09-04T17:00:31.255Z,18.30
2018-09-04T17:03:01.314Z,18.20
2018-09-04T17:05:35.968Z,18.10
2018-09-04T17:08:05.014Z,17.90
2018-09-04T17:10:33.913Z,17.90
2018-09-04T17:13:02.406Z,17.80
2018-09-04T17:15:31.722Z,17.70
2018-09-04T17:18:00.236Z,17.90
2018-09-04T17:20:28.488Z,17.90
2018-09-04T17:22:56.941Z,17.80
2018-09-04T17:25:25.617Z,17.90
2018-09-04T17:27:54.386Z,17.90
2018-09-04T17:30:22.659Z,17.90
2018-09-04T17:32:52.239Z,17.60
2018-09-04T17:35:20.687Z,17.50
2018-09-04T17:37:51.709Z,17.30
2018-09-04T17:40:20.837Z,17.30
2018-09-04T17:42:49.726Z,17.10
2018-09-04T17:45:18.074Z,17.10
2018-09-04T17:47:46.795Z,17.30
2018-09-04T17:50:15.122Z,17.30
2018-09-04T17:52:44.367Z,17.40
2018-09-04T17:55:13.093Z,17.40
2018-09-04T17:57:41.553Z,17.20
2018-09-04T18:00:09.910Z,17.10
2018-09-04T18:02:38.415Z,17.00
2018-09-04T18:05:06.857Z,17.00
2018-09-04T18:07:35.156Z,16.90
2018-09-04T18:10:03.687Z,16.90
2018-09-04T18:12:32.264Z,16.80
2018-09-04T18:15:00.531Z,16.50
2018-09-04T18:17:29.349Z,16.40
2018-09-04T18:19:58.010Z,16.20
2018-09-04T18:22:26.952Z,16.20
2018-09-04T18:24:56.029Z,16.10
2018-09-04T18:27:24.576Z,16.20
2018-09-04T18:29:52.983Z,16.30
2018-09-04T18:32:21.804Z,16.30
2018-09-04T18:34:50.087Z,16.10
2018-09-04T18:37:18.367Z,16.00
2018-09-04T18:39:46.875Z,16.10
2018-09-04T18:42:15.887Z,15.90
2018-09-04T18:44:44.599Z,15.80
2018-09-04T18:47:13.317Z,15.90
2018-09-04T18:49:41.834Z,15.80
2018-09-04T18:52:10.754Z,15.80
2018-09-04T18:54:39.798Z,15.60
2018-09-04T18:57:08.237Z,15.50
2018-09-04T18:59:36.941Z,15.40
2018-09-04T19:02:05.583Z,15.60
2018-09-04T19:04:33.851Z,15.50
2018-09-04T19:07:02.734Z,15.50
2018-09-04T19:09:31.216Z,15.60
2018-09-04T19:11:59.493Z,15.80
2018-09-04T19:14:28.487Z,15.90
2018-09-04T19:16:57.872Z,15.80
2018-09-04T19:19:27.931Z,15.90
2018-09-04T19:21:56.480Z,15.90
2018-09-04T19:24:25.517Z,16.00
2018-09-04T19:26:54.341Z,16.00
2018-09-04T19:29:23.324Z,16.00
2018-09-04T19:31:52.016Z,16.10
2018-09-04T19:34:20.449Z,16.10
2018-09-04T19:36:49.429Z,16.10
2018-09-04T19:39:18.899Z,16.10
2018-09-04T19:41:47.787Z,16.10
2018-09-04T19:44:16.677Z,16.00
2018-09-04T19:46:46.324Z,15.90
2018-09-04T19:49:15.094Z,15.90
2018-09-04T19:51:43.905Z,15.80
2018-09-04T19:54:12.180Z,15.90
2018-09-04T19:56:40.773Z,15.80
2018-09-04T19:59:09.890Z,15.80
2018-09-04T20:01:38.428Z,15.60
2018-09-04T20:04:06.705Z,15.60
2018-09-04T20:06:35.367Z,15.60
2018-09-04T20:09:04.161Z,15.70
2018-09-04T20:11:32.570Z,15.70
2018-09-04T20:14:01.518Z,15.80
2018-09-04T20:16:29.992Z,15.90
2018-09-04T20:18:58.271Z,16.00
2018-09-04T20:21:26.994Z,16.10
2018-09-04T20:23:55.484Z,16.10
2018-09-04T20:26:23.916Z,16.10
2018-09-04T20:28:52.614Z,16.10
2018-09-04T20:31:20.917Z,16.10
2018-09-04T20:33:49.309Z,16.10
2018-09-04T20:36:18.001Z,16.10
2018-09-04T20:38:46.412Z,16.10
2018-09-04T20:41:14.803Z,16.10
2018-09-04T20:43:43.902Z,16.00
2018-09-04T20:46:12.601Z,16.00
2018-09-04T20:48:41.284Z,15.90
2018-09-04T20:51:10.356Z,15.80
2018-09-04T20:53:39.014Z,15.80
2018-09-04T20:56:07.619Z,15.80
2018-09-04T20:58:41.587Z,15.80
2018-09-04T21:01:15.498Z,15.70
2018-09-04T21:03:49.979Z,15.70
2018-09-04T21:06:24.522Z,15.90
2018-09-04T21:09:01.365Z,15.80
2018-09-04T21:11:30.699Z,15.90
2018-09-04T21:13:59.452Z,16.00
2018-09-04T21:16:28.903Z,16.00
2018-09-04T21:18:57.981Z,15.80
2018-09-04T21:21:26.436Z,15.80
2018-09-04T21:23:54.964Z,15.50
2018-09-04T21:26:23.820Z,15.50
2018-09-04T21:28:52.407Z,15.50
2018-09-04T21:31:21.076Z,15.50
2018-09-04T21:33:50.030Z,15.50
2018-09-04T21:36:18.618Z,15.30
2018-09-04T21:38:47.140Z,15.20
2018-09-04T21:41:15.946Z,15.40
2018-09-04T21:43:44.426Z,15.60
2018-09-04T21:46:12.839Z,15.60
2018-09-04T21:48:41.867Z,15.60
2018-09-04T21:51:10.289Z,15.50
2018-09-04T21:53:38.728Z,15.60
2018-09-04T21:56:07.170Z,15.70
2018-09-04T21:58:35.672Z,15.60
2018-09-04T22:01:04.163Z,15.80
2018-09-04T22:03:33.057Z,15.80
2018-09-04T22:06:01.588Z,15.80
2018-09-04T22:08:30.018Z,15.90
2018-09-04T22:10:58.874Z,15.90
2018-09-04T22:13:28.031Z,15.90
2018-09-04T22:15:56.788Z,15.80
2018-09-04T22:18:25.293Z,15.70
2018-09-04T22:20:53.862Z,15.70
2018-09-04T22:23:22.836Z,15.70
2018-09-04T22:25:51.321Z,15.70
2018-09-04T22:28:19.766Z,15.60
2018-09-04T22:30:48.510Z,15.60
2018-09-04T22:33:17.097Z,15.50
2018-09-04T22:35:45.776Z,15.60
2018-09-04T22:38:14.243Z,15.70
2018-09-04T22:40:42.826Z,15.70
2018-09-04T22:43:11.474Z,15.70
2018-09-04T22:45:40.621Z,15.70
2018-09-04T22:48:09.361Z,15.80
2018-09-04T22:50:43.170Z,15.70
2018-09-04T22:53:11.799Z,15.70
2018-09-04T22:55:40.586Z,15.70
2018-09-04T22:58:09.222Z,15.70
2018-09-04T23:00:37.575Z,15.70
2018-09-04T23:03:06.267Z,15.70
2018-09-04T23:05:35.333Z,15.80
2018-09-04T23:08:04.350Z,15.80
2018-09-04T23:10:33.020Z,15.80
2018-09-04T23:13:01.700Z,15.80
2018-09-04T23:15:30.320Z,15.90
2018-09-04T23:17:58.704Z,15.80
2018-09-04T23:20:27.480Z,15.60
2018-09-04T23:22:56.333Z,15.60
2018-09-04T23:25:25.019Z,15.60
2018-09-04T23:27:54.007Z,15.40
2018-09-04T23:30:22.502Z,15.40
2018-09-04T23:32:50.763Z,15.50
2018-09-04T23:35:19.511Z,15.50
2018-09-04T23:37:48.031Z,15.50
2018-09-04T23:40:16.631Z,15.50
2018-09-04T23:42:45.427Z,15.60
2018-09-04T23:45:14.596Z,15.60
2018-09-04T23:47:44.008Z,15.60
2018-09-04T23:50:12.757Z,15.60
2018-09-04T23:52:41.383Z,15.60
2018-09-04T23:55:10.270Z,15.50
2018-09-04T23:57:39.032Z,15.50
